sensor_id;sensor_type;location;lat;lon;timestamp;temperature;humidity
15834;DHT22;8017;50.812;4.934;2023-05-07T00:02:30;15.60;99.90
15834;DHT22;8017;50.812;4.934;2023-05-07T00:05:33;15.70;99.90
15834;DHT22;8017;50.812;4.934;2023-05-07T00:08:36;15.60;99.90
15834;DHT22;8017;50.812;4.934;2023-05-07T00:11:38;15.70;99.90
15834;DHT22;8017;50.812;4.934;2023-05-07T00:14:39;15.70;99.90
15834;DHT22;8017;50.812;4.934;2023-05-07T00:17:41;15.70;99.90
15834;DHT22;8017;50.812;4.934;2023-05-07T00:20:43;15.70;99.90
15834;DHT22;8017;50.812;4.934;2023-05-07T00:23:46;15.70;99.90
15834;DHT22;8017;50.812;4.934;2023-05-07T00:26:48;15.70;99.90
15834;DHT22;8017;50.812;4.934;2023-05-07T00:29:50;15.70;99.90
15834;DHT22;8017;50.812;4.934;2023-05-07T00:32:52;15.70;99.90
15834;DHT22;8017;50.812;4.934;2023-05-07T00:35:54;15.60;99.90
15834;DHT22;8017;50.812;4.934;2023-05-07T00:38:59;15.60;99.90
15834;DHT22;8017;50.812;4.934;2023-05-07T00:42:03;15.60;99.90
15834;DHT22;8017;50.812;4.934;2023-05-07T00:45:06;15.60;99.90
15834;DHT22;8017;50.812;4.934;2023-05-07T00:48:09;15.70;99.90
15834;DHT22;8017;50.812;4.934;2023-05-07T00:51:11;15.70;99.90
15834;DHT22;8017;50.812;4.934;2023-05-07T00:54:15;15.70;99.90
15834;DHT22;8017;50.812;4.934;2023-05-07T00:57:17;15.70;99.90
15834;DHT22;8017;50.812;4.934;2023-05-07T01:00:19;15.70;99.90
15834;DHT22;8017;50.812;4.934;2023-05-07T01:03:21;15.70;99.90
15834;DHT22;8017;50.812;4.934;2023-05-07T01:06:23;15.70;99.90
15834;DHT22;8017;50.812;4.934;2023-05-07T01:09:28;15.60;99.90
15834;DHT22;8017;50.812;4.934;2023-05-07T01:12:31;15.50;99.90
15834;DHT22;8017;50.812;4.934;2023-05-07T01:15:33;15.40;99.90
15834;DHT22;8017;50.812;4.934;2023-05-07T01:18:35;15.30;99.90
15834;DHT22;8017;50.812;4.934;2023-05-07T01:21:37;15.20;99.90
15834;DHT22;8017;50.812;4.934;2023-05-07T01:24:41;15.20;99.90
15834;DHT22;8017;50.812;4.934;2023-05-07T01:27:44;15.10;99.90
15834;DHT22;8017;50.812;4.934;2023-05-07T01:30:49;15.10;99.90
15834;DHT22;8017;50.812;4.934;2023-05-07T01:33:53;15.20;99.90
15834;DHT22;8017;50.812;4.934;2023-05-07T01:36:55;15.20;99.90
15834;DHT22;8017;50.812;4.934;2023-05-07T01:40:01;15.10;99.90
15834;DHT22;8017;50.812;4.934;2023-05-07T01:43:03;15.20;99.90
15834;DHT22;8017;50.812;4.934;2023-05-07T01:46:07;15.10;99.90
15834;DHT22;8017;50.812;4.934;2023-05-07T01:49:10;15.20;99.90
15834;DHT22;8017;50.812;4.934;2023-05-07T01:52:13;15.20;99.90
15834;DHT22;8017;50.812;4.934;2023-05-07T01:55:17;15.10;99.90
15834;DHT22;8017;50.812;4.934;2023-05-07T01:58:19;15.10;99.90
15834;DHT22;8017;50.812;4.934;2023-05-07T02:01:20;15.10;99.90
15834;DHT22;8017;50.812;4.934;2023-05-07T02:04:22;15.10;99.90
15834;DHT22;8017;50.812;4.934;2023-05-07T02:07:25;15.20;99.90
15834;DHT22;8017;50.812;4.934;2023-05-07T02:10:28;15.30;99.90
15834;DHT22;8017;50.812;4.934;2023-05-07T02:13:32;15.40;99.90
15834;DHT22;8017;50.812;4.934;2023-05-07T02:16:34;15.30;99.90
15834;DHT22;8017;50.812;4.934;2023-05-07T02:19:36;15.20;99.90
15834;DHT22;8017;50.812;4.934;2023-05-07T02:22:38;15.20;99.90
15834;DHT22;8017;50.812;4.934;2023-05-07T02:25:41;15.10;99.90
15834;DHT22;8017;50.812;4.934;2023-05-07T02:28:43;15.00;99.90
15834;DHT22;8017;50.812;4.934;2023-05-07T02:31:45;15.00;99.90
15834;DHT22;8017;50.812;4.934;2023-05-07T02:34:50;14.90;99.90
15834;DHT22;8017;50.812;4.934;2023-05-07T02:37:52;14.80;99.90
15834;DHT22;8017;50.812;4.934;2023-05-07T02:40:55;14.80;99.90
15834;DHT22;8017;50.812;4.934;2023-05-07T02:43:57;14.80;99.90
15834;DHT22;8017;50.812;4.934;2023-05-07T02:46:59;14.80;99.90
15834;DHT22;8017;50.812;4.934;2023-05-07T02:50:01;14.80;99.90
15834;DHT22;8017;50.812;4.934;2023-05-07T02:53:02;14.70;99.90
15834;DHT22;8017;50.812;4.934;2023-05-07T02:56:06;14.70;99.90
15834;DHT22;8017;50.812;4.934;2023-05-07T02:59:08;14.70;99.90
15834;DHT22;8017;50.812;4.934;2023-05-07T03:02:10;14.60;99.90
15834;DHT22;8017;50.812;4.934;2023-05-07T03:05:12;14.60;99.90
15834;DHT22;8017;50.812;4.934;2023-05-07T03:08:14;14.60;99.90
15834;DHT22;8017;50.812;4.934;2023-05-07T03:11:18;14.50;99.90
15834;DHT22;8017;50.812;4.934;2023-05-07T03:14:20;14.60;99.90
15834;DHT22;8017;50.812;4.934;2023-05-07T03:17:22;14.60;99.90
15834;DHT22;8017;50.812;4.934;2023-05-07T03:20:24;14.60;99.90
15834;DHT22;8017;50.812;4.934;2023-05-07T03:23:26;14.60;99.90
15834;DHT22;8017;50.812;4.934;2023-05-07T03:26:29;14.60;99.90
15834;DHT22;8017;50.812;4.934;2023-05-07T03:29:31;14.70;99.90
15834;DHT22;8017;50.812;4.934;2023-05-07T03:32:33;14.80;99.90
15834;DHT22;8017;50.812;4.934;2023-05-07T03:35:35;14.80;99.90
15834;DHT22;8017;50.812;4.934;2023-05-07T03:38:37;14.80;99.90
15834;DHT22;8017;50.812;4.934;2023-05-07T03:41:40;14.90;99.90
15834;DHT22;8017;50.812;4.934;2023-05-07T03:44:42;14.80;99.90
15834;DHT22;8017;50.812;4.934;2023-05-07T03:47:44;14.90;99.90
15834;DHT22;8017;50.812;4.934;2023-05-07T03:50:46;14.90;99.90
15834;DHT22;8017;50.812;4.934;2023-05-07T03:53:48;14.90;99.90
15834;DHT22;8017;50.812;4.934;2023-05-07T03:56:51;14.90;99.90
15834;DHT22;8017;50.812;4.934;2023-05-07T03:59:55;14.90;99.90
15834;DHT22;8017;50.812;4.934;2023-05-07T04:03:01;14.90;99.90
15834;DHT22;8017;50.812;4.934;2023-05-07T04:06:09;14.90;99.90
15834;DHT22;8017;50.812;4.934;2023-05-07T04:09:15;14.90;99.90
15834;DHT22;8017;50.812;4.934;2023-05-07T04:12:22;14.90;99.90
15834;DHT22;8017;50.812;4.934;2023-05-07T04:15:37;14.80;99.90
15834;DHT22;8017;50.812;4.934;2023-05-07T04:18:47;14.80;99.90
15834;DHT22;8017;50.812;4.934;2023-05-07T04:21:52;14.70;99.90
15834;DHT22;8017;50.812;4.934;2023-05-07T04:24:58;14.70;99.90
15834;DHT22;8017;50.812;4.934;2023-05-07T04:28:12;14.80;99.90
15834;DHT22;8017;50.812;4.934;2023-05-07T04:31:18;14.80;99.90
15834;DHT22;8017;50.812;4.934;2023-05-07T04:34:24;14.80;99.90
15834;DHT22;8017;50.812;4.934;2023-05-07T04:37:33;14.70;99.90
15834;DHT22;8017;50.812;4.934;2023-05-07T04:40:37;14.80;99.90
15834;DHT22;8017;50.812;4.934;2023-05-07T04:43:40;14.80;99.90
15834;DHT22;8017;50.812;4.934;2023-05-07T04:46:43;14.80;99.90
15834;DHT22;8017;50.812;4.934;2023-05-07T04:49:45;14.80;99.90
15834;DHT22;8017;50.812;4.934;2023-05-07T04:52:47;14.80;99.90
15834;DHT22;8017;50.812;4.934;2023-05-07T04:55:49;14.80;99.90
15834;DHT22;8017;50.812;4.934;2023-05-07T04:58:52;14.80;99.90
15834;DHT22;8017;50.812;4.934;2023-05-07T05:01:54;14.90;99.90
15834;DHT22;8017;50.812;4.934;2023-05-07T05:04:56;14.90;99.90
15834;DHT22;8017;50.812;4.934;2023-05-07T05:07:57;15.10;99.90
15834;DHT22;8017;50.812;4.934;2023-05-07T05:11:00;15.20;99.90
15834;DHT22;8017;50.812;4.934;2023-05-07T05:14:04;15.40;99.90
15834;DHT22;8017;50.812;4.934;2023-05-07T05:17:05;15.50;99.90
15834;DHT22;8017;50.812;4.934;2023-05-07T05:20:08;15.60;99.90
15834;DHT22;8017;50.812;4.934;2023-05-07T05:23:11;15.70;99.90
15834;DHT22;8017;50.812;4.934;2023-05-07T05:26:13;15.90;99.90
15834;DHT22;8017;50.812;4.934;2023-05-07T05:29:16;16.10;99.90
15834;DHT22;8017;50.812;4.934;2023-05-07T05:32:18;16.20;99.90
15834;DHT22;8017;50.812;4.934;2023-05-07T05:35:20;16.30;99.90
15834;DHT22;8017;50.812;4.934;2023-05-07T05:38:22;16.50;99.90
15834;DHT22;8017;50.812;4.934;2023-05-07T05:41:24;16.60;99.90
15834;DHT22;8017;50.812;4.934;2023-05-07T05:44:27;16.60;99.90
15834;DHT22;8017;50.812;4.934;2023-05-07T05:47:29;16.60;99.90
15834;DHT22;8017;50.812;4.934;2023-05-07T05:50:31;16.70;99.90
15834;DHT22;8017;50.812;4.934;2023-05-07T05:53:33;16.60;99.90
15834;DHT22;8017;50.812;4.934;2023-05-07T05:56:36;16.60;99.90
15834;DHT22;8017;50.812;4.934;2023-05-07T05:59:40;16.60;99.90
15834;DHT22;8017;50.812;4.934;2023-05-07T06:02:42;16.80;99.90
15834;DHT22;8017;50.812;4.934;2023-05-07T06:05:44;16.90;99.90
15834;DHT22;8017;50.812;4.934;2023-05-07T06:08:46;16.80;99.90
15834;DHT22;8017;50.812;4.934;2023-05-07T06:11:48;16.90;99.90
15834;DHT22;8017;50.812;4.934;2023-05-07T06:14:51;17.10;99.90
15834;DHT22;8017;50.812;4.934;2023-05-07T06:17:53;17.30;99.90
15834;DHT22;8017;50.812;4.934;2023-05-07T06:20:56;17.50;99.90
15834;DHT22;8017;50.812;4.934;2023-05-07T06:23:58;17.50;99.90
15834;DHT22;8017;50.812;4.934;2023-05-07T06:27:00;17.50;99.90
15834;DHT22;8017;50.812;4.934;2023-05-07T06:30:04;17.60;99.90
15834;DHT22;8017;50.812;4.934;2023-05-07T06:33:06;17.80;99.90
15834;DHT22;8017;50.812;4.934;2023-05-07T06:36:08;18.10;99.90
15834;DHT22;8017;50.812;4.934;2023-05-07T06:39:11;18.00;99.90
15834;DHT22;8017;50.812;4.934;2023-05-07T06:42:12;18.20;99.90
15834;DHT22;8017;50.812;4.934;2023-05-07T06:45:16;18.50;99.90
15834;DHT22;8017;50.812;4.934;2023-05-07T06:48:18;18.60;99.90
15834;DHT22;8017;50.812;4.934;2023-05-07T06:51:20;18.90;99.90
15834;DHT22;8017;50.812;4.934;2023-05-07T06:54:23;19.10;99.90
15834;DHT22;8017;50.812;4.934;2023-05-07T06:57:25;19.40;99.90
15834;DHT22;8017;50.812;4.934;2023-05-07T07:00:28;19.50;99.90
15834;DHT22;8017;50.812;4.934;2023-05-07T07:03:30;19.70;99.90
15834;DHT22;8017;50.812;4.934;2023-05-07T07:06:32;19.50;99.90
15834;DHT22;8017;50.812;4.934;2023-05-07T07:09:34;19.20;99.90
15834;DHT22;8017;50.812;4.934;2023-05-07T07:12:36;19.00;99.90
15834;DHT22;8017;50.812;4.934;2023-05-07T07:15:39;18.90;99.90
15834;DHT22;8017;50.812;4.934;2023-05-07T07:18:41;19.00;99.90
15834;DHT22;8017;50.812;4.934;2023-05-07T07:21:43;19.20;99.90
15834;DHT22;8017;50.812;4.934;2023-05-07T07:24:45;19.30;99.90
15834;DHT22;8017;50.812;4.934;2023-05-07T07:27:47;19.20;99.90
15834;DHT22;8017;50.812;4.934;2023-05-07T07:30:50;19.20;99.90
15834;DHT22;8017;50.812;4.934;2023-05-07T07:33:52;19.30;99.90
15834;DHT22;8017;50.812;4.934;2023-05-07T07:36:54;19.40;99.90
15834;DHT22;8017;50.812;4.934;2023-05-07T07:39:56;19.50;99.90
15834;DHT22;8017;50.812;4.934;2023-05-07T07:42:58;19.70;99.90
15834;DHT22;8017;50.812;4.934;2023-05-07T07:46:03;19.50;99.90
15834;DHT22;8017;50.812;4.934;2023-05-07T07:49:05;19.50;99.90
15834;DHT22;8017;50.812;4.934;2023-05-07T07:52:07;19.60;99.90
15834;DHT22;8017;50.812;4.934;2023-05-07T07:55:09;19.80;99.90
15834;DHT22;8017;50.812;4.934;2023-05-07T07:58:11;20.10;99.90
15834;DHT22;8017;50.812;4.934;2023-05-07T08:01:14;20.20;99.90
15834;DHT22;8017;50.812;4.934;2023-05-07T08:04:17;20.60;99.90
15834;DHT22;8017;50.812;4.934;2023-05-07T08:07:19;20.50;99.90
15834;DHT22;8017;50.812;4.934;2023-05-07T08:10:23;20.90;99.90
15834;DHT22;8017;50.812;4.934;2023-05-07T08:13:25;20.90;99.90
15834;DHT22;8017;50.812;4.934;2023-05-07T08:16:28;20.80;99.90
15834;DHT22;8017;50.812;4.934;2023-05-07T08:19:30;20.60;99.90
15834;DHT22;8017;50.812;4.934;2023-05-07T08:22:33;20.50;99.90
15834;DHT22;8017;50.812;4.934;2023-05-07T08:25:36;20.60;99.90
15834;DHT22;8017;50.812;4.934;2023-05-07T08:28:38;20.70;99.90
15834;DHT22;8017;50.812;4.934;2023-05-07T08:31:41;21.00;99.90
15834;DHT22;8017;50.812;4.934;2023-05-07T08:34:43;21.00;99.90
15834;DHT22;8017;50.812;4.934;2023-05-07T08:37:45;21.20;99.90
15834;DHT22;8017;50.812;4.934;2023-05-07T08:40:47;21.30;99.90
15834;DHT22;8017;50.812;4.934;2023-05-07T08:43:50;21.10;99.90
15834;DHT22;8017;50.812;4.934;2023-05-07T08:46:56;21.00;99.90
15834;DHT22;8017;50.812;4.934;2023-05-07T08:49:58;21.00;99.90
15834;DHT22;8017;50.812;4.934;2023-05-07T08:53:00;21.00;99.90
15834;DHT22;8017;50.812;4.934;2023-05-07T08:56:05;20.90;99.90
15834;DHT22;8017;50.812;4.934;2023-05-07T08:59:07;20.80;99.90
15834;DHT22;8017;50.812;4.934;2023-05-07T09:02:11;20.80;99.90
15834;DHT22;8017;50.812;4.934;2023-05-07T09:05:13;20.40;99.90
15834;DHT22;8017;50.812;4.934;2023-05-07T09:08:15;20.20;99.90
15834;DHT22;8017;50.812;4.934;2023-05-07T09:11:20;20.10;99.90
15834;DHT22;8017;50.812;4.934;2023-05-07T09:14:23;20.10;99.90
15834;DHT22;8017;50.812;4.934;2023-05-07T09:17:27;20.10;99.90
15834;DHT22;8017;50.812;4.934;2023-05-07T09:20:30;19.90;99.90
15834;DHT22;8017;50.812;4.934;2023-05-07T09:23:33;19.70;99.90
15834;DHT22;8017;50.812;4.934;2023-05-07T09:26:35;19.80;99.90
15834;DHT22;8017;50.812;4.934;2023-05-07T09:29:37;19.80;99.90
15834;DHT22;8017;50.812;4.934;2023-05-07T09:32:40;19.80;99.90
15834;DHT22;8017;50.812;4.934;2023-05-07T09:35:42;19.50;99.90
15834;DHT22;8017;50.812;4.934;2023-05-07T09:38:45;19.40;99.90
15834;DHT22;8017;50.812;4.934;2023-05-07T09:41:49;19.30;99.90
15834;DHT22;8017;50.812;4.934;2023-05-07T09:44:52;19.30;99.90
15834;DHT22;8017;50.812;4.934;2023-05-07T09:47:56;19.10;99.90
15834;DHT22;8017;50.812;4.934;2023-05-07T09:51:02;19.20;99.90
15834;DHT22;8017;50.812;4.934;2023-05-07T09:54:04;19.10;99.90
15834;DHT22;8017;50.812;4.934;2023-05-07T09:57:07;19.20;99.90
15834;DHT22;8017;50.812;4.934;2023-05-07T10:00:11;19.20;99.90
15834;DHT22;8017;50.812;4.934;2023-05-07T10:03:15;19.00;99.90
15834;DHT22;8017;50.812;4.934;2023-05-07T10:06:17;18.90;99.90
15834;DHT22;8017;50.812;4.934;2023-05-07T10:09:21;18.90;99.90
15834;DHT22;8017;50.812;4.934;2023-05-07T10:12:23;18.90;99.90
15834;DHT22;8017;50.812;4.934;2023-05-07T10:15:26;18.90;99.90
15834;DHT22;8017;50.812;4.934;2023-05-07T10:18:30;19.20;99.90
15834;DHT22;8017;50.812;4.934;2023-05-07T10:21:35;19.30;99.90
15834;DHT22;8017;50.812;4.934;2023-05-07T10:24:38;19.10;99.90
15834;DHT22;8017;50.812;4.934;2023-05-07T10:27:40;18.80;99.90
15834;DHT22;8017;50.812;4.934;2023-05-07T10:30:51;18.60;99.90
15834;DHT22;8017;50.812;4.934;2023-05-07T10:34:07;18.60;99.90
15834;DHT22;8017;50.812;4.934;2023-05-07T10:37:10;18.60;99.90
15834;DHT22;8017;50.812;4.934;2023-05-07T10:40:13;18.80;99.90
15834;DHT22;8017;50.812;4.934;2023-05-07T10:43:15;18.60;99.90
15834;DHT22;8017;50.812;4.934;2023-05-07T10:46:19;18.60;99.90
15834;DHT22;8017;50.812;4.934;2023-05-07T10:49:22;18.80;99.90
15834;DHT22;8017;50.812;4.934;2023-05-07T10:52:24;18.90;99.90
15834;DHT22;8017;50.812;4.934;2023-05-07T10:55:27;19.20;99.90
15834;DHT22;8017;50.812;4.934;2023-05-07T10:58:30;19.20;99.90
15834;DHT22;8017;50.812;4.934;2023-05-07T11:01:50;19.60;99.90
15834;DHT22;8017;50.812;4.934;2023-05-07T11:05:21;19.80;99.90
15834;DHT22;8017;50.812;4.934;2023-05-07T11:08:23;19.90;99.90
15834;DHT22;8017;50.812;4.934;2023-05-07T11:11:43;19.90;99.90
15834;DHT22;8017;50.812;4.934;2023-05-07T11:14:46;20.10;99.90
15834;DHT22;8017;50.812;4.934;2023-05-07T11:17:55;20.50;99.90
15834;DHT22;8017;50.812;4.934;2023-05-07T11:20:59;20.80;99.90
15834;DHT22;8017;50.812;4.934;2023-05-07T11:24:01;20.60;99.90
15834;DHT22;8017;50.812;4.934;2023-05-07T11:27:04;20.40;99.90
15834;DHT22;8017;50.812;4.934;2023-05-07T11:30:07;20.50;99.90
15834;DHT22;8017;50.812;4.934;2023-05-07T11:33:10;20.50;99.90
15834;DHT22;8017;50.812;4.934;2023-05-07T11:36:13;20.60;99.90
15834;DHT22;8017;50.812;4.934;2023-05-07T11:39:26;20.40;99.90
15834;DHT22;8017;50.812;4.934;2023-05-07T11:42:29;20.40;99.90
15834;DHT22;8017;50.812;4.934;2023-05-07T11:45:31;20.30;99.90
15834;DHT22;8017;50.812;4.934;2023-05-07T11:48:35;20.50;99.90
15834;DHT22;8017;50.812;4.934;2023-05-07T11:51:39;20.40;99.90
15834;DHT22;8017;50.812;4.934;2023-05-07T11:54:41;20.50;99.90
15834;DHT22;8017;50.812;4.934;2023-05-07T11:57:43;20.50;99.90
15834;DHT22;8017;50.812;4.934;2023-05-07T12:00:48;20.60;99.90
15834;DHT22;8017;50.812;4.934;2023-05-07T12:03:50;20.40;99.90
15834;DHT22;8017;50.812;4.934;2023-05-07T12:06:55;20.40;99.90
15834;DHT22;8017;50.812;4.934;2023-05-07T12:09:57;20.40;99.90
15834;DHT22;8017;50.812;4.934;2023-05-07T12:12:59;20.10;99.90
15834;DHT22;8017;50.812;4.934;2023-05-07T12:16:01;19.90;99.90
15834;DHT22;8017;50.812;4.934;2023-05-07T12:19:04;19.90;99.90
15834;DHT22;8017;50.812;4.934;2023-05-07T12:22:10;20.10;99.90
15834;DHT22;8017;50.812;4.934;2023-05-07T12:25:12;20.30;99.90
15834;DHT22;8017;50.812;4.934;2023-05-07T12:28:20;20.40;99.90
15834;DHT22;8017;50.812;4.934;2023-05-07T12:31:21;20.50;99.90
15834;DHT22;8017;50.812;4.934;2023-05-07T12:34:23;20.70;99.90
15834;DHT22;8017;50.812;4.934;2023-05-07T12:37:27;20.80;99.90
15834;DHT22;8017;50.812;4.934;2023-05-07T12:40:35;20.60;99.90
15834;DHT22;8017;50.812;4.934;2023-05-07T12:43:38;20.80;99.90
15834;DHT22;8017;50.812;4.934;2023-05-07T12:46:39;20.90;99.90
15834;DHT22;8017;50.812;4.934;2023-05-07T12:49:42;21.10;99.90
15834;DHT22;8017;50.812;4.934;2023-05-07T12:52:48;21.10;99.90
15834;DHT22;8017;50.812;4.934;2023-05-07T12:55:51;21.30;99.90
15834;DHT22;8017;50.812;4.934;2023-05-07T12:58:57;21.50;99.90
15834;DHT22;8017;50.812;4.934;2023-05-07T13:01:59;21.60;99.90
15834;DHT22;8017;50.812;4.934;2023-05-07T13:05:02;21.40;99.90
15834;DHT22;8017;50.812;4.934;2023-05-07T13:08:05;21.40;99.90
15834;DHT22;8017;50.812;4.934;2023-05-07T13:11:11;21.40;99.90
15834;DHT22;8017;50.812;4.934;2023-05-07T13:14:13;21.30;99.90
15834;DHT22;8017;50.812;4.934;2023-05-07T13:17:15;21.30;99.90
15834;DHT22;8017;50.812;4.934;2023-05-07T13:20:17;21.30;99.90
15834;DHT22;8017;50.812;4.934;2023-05-07T13:23:20;21.40;99.90
15834;DHT22;8017;50.812;4.934;2023-05-07T13:26:22;21.40;99.90
15834;DHT22;8017;50.812;4.934;2023-05-07T13:29:24;21.40;99.90
15834;DHT22;8017;50.812;4.934;2023-05-07T13:32:30;21.40;99.90
15834;DHT22;8017;50.812;4.934;2023-05-07T13:35:33;21.50;99.90
15834;DHT22;8017;50.812;4.934;2023-05-07T13:38:36;21.50;99.90
15834;DHT22;8017;50.812;4.934;2023-05-07T13:41:38;21.50;99.90
15834;DHT22;8017;50.812;4.934;2023-05-07T13:44:40;21.40;99.90
15834;DHT22;8017;50.812;4.934;2023-05-07T13:47:44;21.60;99.90
15834;DHT22;8017;50.812;4.934;2023-05-07T13:50:46;21.60;99.90
15834;DHT22;8017;50.812;4.934;2023-05-07T13:53:49;21.50;99.90
15834;DHT22;8017;50.812;4.934;2023-05-07T13:56:53;21.40;99.90
15834;DHT22;8017;50.812;4.934;2023-05-07T13:59:54;21.30;99.90
15834;DHT22;8017;50.812;4.934;2023-05-07T14:02:56;21.40;99.90
15834;DHT22;8017;50.812;4.934;2023-05-07T14:05:59;21.30;99.90
15834;DHT22;8017;50.812;4.934;2023-05-07T14:09:03;21.30;99.90
15834;DHT22;8017;50.812;4.934;2023-05-07T14:12:05;21.10;99.90
15834;DHT22;8017;50.812;4.934;2023-05-07T14:15:08;21.10;99.90
15834;DHT22;8017;50.812;4.934;2023-05-07T14:18:10;21.00;99.90
15834;DHT22;8017;50.812;4.934;2023-05-07T14:21:12;21.10;99.90
15834;DHT22;8017;50.812;4.934;2023-05-07T14:24:15;21.20;99.90
15834;DHT22;8017;50.812;4.934;2023-05-07T14:27:17;21.50;99.90
15834;DHT22;8017;50.812;4.934;2023-05-07T14:30:19;21.30;99.90
15834;DHT22;8017;50.812;4.934;2023-05-07T14:33:22;21.10;99.90
15834;DHT22;8017;50.812;4.934;2023-05-07T14:36:25;21.00;99.90
15834;DHT22;8017;50.812;4.934;2023-05-07T14:39:29;20.90;99.90
15834;DHT22;8017;50.812;4.934;2023-05-07T14:42:31;21.00;99.90
15834;DHT22;8017;50.812;4.934;2023-05-07T14:45:33;20.80;99.90
15834;DHT22;8017;50.812;4.934;2023-05-07T14:48:34;20.70;99.90
15834;DHT22;8017;50.812;4.934;2023-05-07T14:51:36;20.70;99.90
15834;DHT22;8017;50.812;4.934;2023-05-07T14:54:40;20.70;99.90
15834;DHT22;8017;50.812;4.934;2023-05-07T14:57:42;20.70;99.90
15834;DHT22;8017;50.812;4.934;2023-05-07T15:00:44;20.70;99.90
15834;DHT22;8017;50.812;4.934;2023-05-07T15:03:46;20.80;99.90
15834;DHT22;8017;50.812;4.934;2023-05-07T15:06:47;20.90;99.90
15834;DHT22;8017;50.812;4.934;2023-05-07T15:09:51;20.90;99.90
15834;DHT22;8017;50.812;4.934;2023-05-07T15:12:53;21.10;99.90
15834;DHT22;8017;50.812;4.934;2023-05-07T15:15:55;21.00;99.90
15834;DHT22;8017;50.812;4.934;2023-05-07T15:18:57;21.10;99.90
15834;DHT22;8017;50.812;4.934;2023-05-07T15:21:59;21.30;99.90
15834;DHT22;8017;50.812;4.934;2023-05-07T15:25:04;21.30;99.90
15834;DHT22;8017;50.812;4.934;2023-05-07T15:28:07;21.20;99.90
15834;DHT22;8017;50.812;4.934;2023-05-07T15:31:09;21.30;99.90
15834;DHT22;8017;50.812;4.934;2023-05-07T15:34:11;21.40;99.90
15834;DHT22;8017;50.812;4.934;2023-05-07T15:37:12;21.20;99.90
15834;DHT22;8017;50.812;4.934;2023-05-07T15:40:16;21.10;99.90
15834;DHT22;8017;50.812;4.934;2023-05-07T15:43:18;21.10;99.90
15834;DHT22;8017;50.812;4.934;2023-05-07T15:46:21;21.10;99.90
15834;DHT22;8017;50.812;4.934;2023-05-07T15:49:24;21.10;99.90
15834;DHT22;8017;50.812;4.934;2023-05-07T15:52:26;21.30;99.90
15834;DHT22;8017;50.812;4.934;2023-05-07T15:55:30;21.20;99.90
15834;DHT22;8017;50.812;4.934;2023-05-07T15:58:32;21.20;99.90
15834;DHT22;8017;50.812;4.934;2023-05-07T16:01:35;21.30;99.90
15834;DHT22;8017;50.812;4.934;2023-05-07T16:04:37;21.10;99.90
15834;DHT22;8017;50.812;4.934;2023-05-07T16:07:39;21.10;99.90
15834;DHT22;8017;50.812;4.934;2023-05-07T16:10:45;21.30;99.90
15834;DHT22;8017;50.812;4.934;2023-05-07T16:13:52;21.50;99.90
15834;DHT22;8017;50.812;4.934;2023-05-07T16:16:54;21.60;99.90
15834;DHT22;8017;50.812;4.934;2023-05-07T16:19:56;21.50;99.90
15834;DHT22;8017;50.812;4.934;2023-05-07T16:22:59;21.50;99.90
15834;DHT22;8017;50.812;4.934;2023-05-07T16:26:02;21.70;99.90
15834;DHT22;8017;50.812;4.934;2023-05-07T16:29:05;21.80;99.90
15834;DHT22;8017;50.812;4.934;2023-05-07T16:32:07;21.90;99.90
15834;DHT22;8017;50.812;4.934;2023-05-07T16:35:09;22.00;99.90
15834;DHT22;8017;50.812;4.934;2023-05-07T16:38:11;21.80;99.90
15834;DHT22;8017;50.812;4.934;2023-05-07T16:41:14;21.40;99.90
15834;DHT22;8017;50.812;4.934;2023-05-07T16:44:16;21.30;99.90
15834;DHT22;8017;50.812;4.934;2023-05-07T16:47:18;21.00;99.90
15834;DHT22;8017;50.812;4.934;2023-05-07T16:50:21;21.00;99.90
15834;DHT22;8017;50.812;4.934;2023-05-07T16:53:23;21.00;99.90
15834;DHT22;8017;50.812;4.934;2023-05-07T16:56:26;20.90;99.90
15834;DHT22;8017;50.812;4.934;2023-05-07T16:59:28;20.80;99.90
15834;DHT22;8017;50.812;4.934;2023-05-07T17:02:31;20.80;99.90
15834;DHT22;8017;50.812;4.934;2023-05-07T17:05:34;20.60;99.90
15834;DHT22;8017;50.812;4.934;2023-05-07T17:08:36;20.30;99.90
15834;DHT22;8017;50.812;4.934;2023-05-07T17:11:39;20.20;99.90
15834;DHT22;8017;50.812;4.934;2023-05-07T17:14:41;20.20;99.90
15834;DHT22;8017;50.812;4.934;2023-05-07T17:17:43;20.20;99.90
15834;DHT22;8017;50.812;4.934;2023-05-07T17:20:45;20.20;99.90
15834;DHT22;8017;50.812;4.934;2023-05-07T17:23:47;20.10;99.90
15834;DHT22;8017;50.812;4.934;2023-05-07T17:26:51;20.10;99.90
15834;DHT22;8017;50.812;4.934;2023-05-07T17:29:53;20.00;99.90
15834;DHT22;8017;50.812;4.934;2023-05-07T17:32:55;19.90;99.90
15834;DHT22;8017;50.812;4.934;2023-05-07T17:35:57;19.80;99.90
15834;DHT22;8017;50.812;4.934;2023-05-07T17:38:59;19.80;99.90
15834;DHT22;8017;50.812;4.934;2023-05-07T17:42:02;19.70;99.90
15834;DHT22;8017;50.812;4.934;2023-05-07T17:45:05;19.50;99.90
15834;DHT22;8017;50.812;4.934;2023-05-07T17:48:07;19.30;99.90
15834;DHT22;8017;50.812;4.934;2023-05-07T17:51:09;19.40;99.90
15834;DHT22;8017;50.812;4.934;2023-05-07T17:54:11;19.50;99.90
15834;DHT22;8017;50.812;4.934;2023-05-07T17:57:14;19.30;99.90
15834;DHT22;8017;50.812;4.934;2023-05-07T18:00:16;19.20;99.90
15834;DHT22;8017;50.812;4.934;2023-05-07T18:03:18;19.20;99.90
15834;DHT22;8017;50.812;4.934;2023-05-07T18:06:20;19.20;99.90
15834;DHT22;8017;50.812;4.934;2023-05-07T18:09:22;19.20;99.90
15834;DHT22;8017;50.812;4.934;2023-05-07T18:12:26;19.20;99.90
15834;DHT22;8017;50.812;4.934;2023-05-07T18:15:28;19.10;99.90
15834;DHT22;8017;50.812;4.934;2023-05-07T18:18:29;19.10;99.90
15834;DHT22;8017;50.812;4.934;2023-05-07T18:21:36;19.00;99.90
15834;DHT22;8017;50.812;4.934;2023-05-07T18:24:48;19.00;99.90
15834;DHT22;8017;50.812;4.934;2023-05-07T18:27:56;19.00;99.90
15834;DHT22;8017;50.812;4.934;2023-05-07T18:31:00;18.90;99.90
15834;DHT22;8017;50.812;4.934;2023-05-07T18:34:05;18.80;99.90
15834;DHT22;8017;50.812;4.934;2023-05-07T18:37:07;18.80;99.90
15834;DHT22;8017;50.812;4.934;2023-05-07T18:40:09;18.80;99.90
15834;DHT22;8017;50.812;4.934;2023-05-07T18:43:13;18.80;99.90
15834;DHT22;8017;50.812;4.934;2023-05-07T18:46:15;18.80;99.90
15834;DHT22;8017;50.812;4.934;2023-05-07T18:49:17;18.80;99.90
15834;DHT22;8017;50.812;4.934;2023-05-07T18:52:19;18.70;99.90
15834;DHT22;8017;50.812;4.934;2023-05-07T18:55:21;18.70;99.90
15834;DHT22;8017;50.812;4.934;2023-05-07T18:58:25;18.60;99.90
15834;DHT22;8017;50.812;4.934;2023-05-07T19:01:27;18.50;99.90
15834;DHT22;8017;50.812;4.934;2023-05-07T19:04:29;18.50;99.90
15834;DHT22;8017;50.812;4.934;2023-05-07T19:07:31;18.40;99.90
15834;DHT22;8017;50.812;4.934;2023-05-07T19:10:33;18.40;99.90
15834;DHT22;8017;50.812;4.934;2023-05-07T19:13:36;18.40;99.90
15834;DHT22;8017;50.812;4.934;2023-05-07T19:16:38;18.40;99.90
15834;DHT22;8017;50.812;4.934;2023-05-07T19:19:40;18.30;99.90
15834;DHT22;8017;50.812;4.934;2023-05-07T19:22:44;18.30;99.90
15834;DHT22;8017;50.812;4.934;2023-05-07T19:25:46;18.30;99.90
15834;DHT22;8017;50.812;4.934;2023-05-07T19:28:50;18.30;99.90
15834;DHT22;8017;50.812;4.934;2023-05-07T19:31:52;18.30;99.90
15834;DHT22;8017;50.812;4.934;2023-05-07T19:34:53;18.20;99.90